Time;durP1;ratioP1;P1;durP2;ratioP2;P2;SDS_P1;SDS_P2;PMS_P1;PMS_P2;Temp;Humidity;BMP_temperature;BMP_pressure;BME280_temperature;BME280_humidity;BME280_pressure;Samples;Min_cycle;Max_cycle;Signal;HPM_P1;HPM_P2
2024/01/29 00:01:44;;;;;;;15.77;6.20;;;1.00;99.90;;;;;;5011716;28;20085;-77
2024/01/29 00:04:10;;;;;;;11.50;5.87;;;0.90;99.90;;;;;;5010852;28;20517;-77
2024/01/29 00:06:36;;;;;;;10.77;6.20;;;0.90;99.90;;;;;;5011913;28;20031;-78
2024/01/29 00:09:01;;;;;;;12.03;6.50;;;0.90;99.90;;;;;;5010846;28;20478;-78
2024/01/29 00:11:27;;;;;;;13.20;6.60;;;0.90;99.90;;;;;;5011629;28;20085;-77
2024/01/29 00:13:52;;;;;;;13.63;6.43;;;0.80;99.90;;;;;;5011016;28;20026;-79
2024/01/29 00:16:18;;;;;;;13.67;6.43;;;0.80;99.90;;;;;;4994131;28;20026;-77
2024/01/29 00:18:44;;;;;;;15.20;7.03;;;0.70;99.90;;;;;;5011334;28;20027;-77
2024/01/29 00:21:09;;;;;;;14.03;7.17;;;0.80;99.90;;;;;;5010450;28;20073;-77
2024/01/29 00:23:35;;;;;;;16.63;6.87;;;0.80;99.90;;;;;;4996098;28;20060;-77
2024/01/29 00:26:00;;;;;;;13.80;6.57;;;0.80;99.90;;;;;;4994389;28;20030;-77
2024/01/29 00:28:26;;;;;;;14.17;7.03;;;0.80;99.90;;;;;;5010662;28;20458;-76
2024/01/29 00:30:51;;;;;;;15.17;6.97;;;0.80;99.90;;;;;;4995552;28;20039;-76
2024/01/29 00:33:18;;;;;;;11.20;6.67;;;0.80;99.90;;;;;;4994306;28;20026;-77
2024/01/29 00:35:43;;;;;;;15.97;8.20;;;0.80;99.90;;;;;;4994531;28;20030;-77
2024/01/29 00:38:09;;;;;;;14.70;7.37;;;0.80;99.90;;;;;;5010421;28;20048;-77
2024/01/29 00:40:37;;;;;;;11.53;6.97;;;0.80;99.90;;;;;;5010840;28;20471;-77
2024/01/29 00:43:03;;;;;;;14.67;7.37;;;0.80;99.90;;;;;;4995209;28;20022;-77
2024/01/29 00:45:28;;;;;;;12.57;7.03;;;0.80;99.90;;;;;;4995238;28;20084;-77
2024/01/29 00:47:54;;;;;;;15.60;7.30;;;0.90;99.90;;;;;;4993845;28;20031;-79
2024/01/29 00:50:20;;;;;;;10.93;6.63;;;0.80;99.90;;;;;;4994314;28;20525;-77
2024/01/29 00:52:45;;;;;;;16.30;6.77;;;0.90;99.90;;;;;;4995310;28;20026;-77
2024/01/29 00:55:12;;;;;;;12.30;6.73;;;0.90;99.90;;;;;;4994849;28;20033;-77
2024/01/29 00:57:37;;;;;;;18.63;7.93;;;0.80;99.90;;;;;;4995252;28;20026;-77
2024/01/29 01:00:04;;;;;;;13.73;7.00;;;0.90;99.90;;;;;;4993266;28;20091;-77
2024/01/29 01:02:29;;;;;;;14.17;6.70;;;0.90;99.90;;;;;;4993950;28;20378;-77
2024/01/29 01:04:55;;;;;;;13.70;7.00;;;0.90;99.90;;;;;;5009741;28;20054;-78
2024/01/29 01:07:20;;;;;;;13.47;7.67;;;0.80;99.90;;;;;;4993878;28;20042;-77
2024/01/29 01:09:46;;;;;;;16.50;7.73;;;0.70;99.90;;;;;;5010504;28;20038;-77
2024/01/29 01:12:12;;;;;;;12.90;7.00;;;0.70;99.90;;;;;;5009912;28;20026;-77
2024/01/29 01:14:37;;;;;;;12.77;6.43;;;0.60;99.90;;;;;;4993812;28;20062;-77
2024/01/29 01:17:04;;;;;;;13.63;6.80;;;0.70;99.90;;;;;;5009869;28;20073;-77
2024/01/29 01:19:30;;;;;;;13.97;7.03;;;0.70;99.90;;;;;;4994085;28;20037;-77
2024/01/29 01:21:55;;;;;;;17.13;6.90;;;0.70;99.90;;;;;;4994858;28;20026;-81
2024/01/29 01:24:21;;;;;;;16.57;7.93;;;0.70;99.90;;;;;;4994734;28;20053;-77
2024/01/29 01:26:46;;;;;;;15.50;7.97;;;0.70;99.90;;;;;;4993471;28;20048;-77
2024/01/29 01:29:13;;;;;;;14.70;7.57;;;0.60;99.90;;;;;;5009786;28;20030;-78
2024/01/29 01:31:39;;;;;;;16.23;7.60;;;0.60;99.90;;;;;;5009958;28;20067;-78
2024/01/29 01:34:04;;;;;;;17.10;7.20;;;0.70;99.90;;;;;;5009486;28;20069;-77
2024/01/29 01:36:30;;;;;;;13.50;6.97;;;0.60;99.90;;;;;;4993794;28;20034;-77
2024/01/29 01:38:55;;;;;;;14.27;8.07;;;0.60;99.90;;;;;;4995019;28;20133;-78
2024/01/29 01:41:21;;;;;;;12.70;6.20;;;0.60;99.90;;;;;;4994467;28;20652;-78
2024/01/29 01:43:47;;;;;;;12.17;6.83;;;0.60;99.90;;;;;;4993591;28;20076;-77
2024/01/29 01:46:23;;;;;;;16.40;7.43;;;0.70;99.90;;;;;;5009373;28;20378;-77
2024/01/29 01:48:56;;;;;;;15.43;7.43;;;0.70;99.90;;;;;;4993323;28;20034;-78
2024/01/29 01:51:23;;;;;;;15.63;8.30;;;0.80;99.90;;;;;;4992940;28;20100;-78
2024/01/29 01:53:54;;;;;;;13.80;7.00;;;0.80;99.90;;;;;;4994553;28;20050;-77
2024/01/29 01:56:20;;;;;;;14.60;7.85;;;0.70;99.90;;;;;;4992966;28;20484;-78
2024/01/29 01:58:46;;;;;;;14.07;7.50;;;0.70;99.90;;;;;;4993246;28;20045;-78
2024/01/29 02:01:15;;;;;;;14.80;7.80;;;0.70;99.90;;;;;;4992661;28;20121;-78
2024/01/29 02:03:42;;;;;;;15.20;8.03;;;0.70;99.90;;;;;;5009895;28;20034;-78
2024/01/29 02:06:09;;;;;;;14.30;7.13;;;0.70;99.90;;;;;;4993926;28;20085;-77
2024/01/29 02:08:35;;;;;;;12.57;7.33;;;0.70;99.90;;;;;;4993089;28;20037;-77
2024/01/29 02:11:00;;;;;;;16.37;7.37;;;0.70;99.90;;;;;;5009061;28;20034;-78
2024/01/29 02:13:26;;;;;;;10.33;7.17;;;0.70;99.90;;;;;;4994147;28;20073;-78
2024/01/29 02:15:52;;;;;;;14.50;6.87;;;0.70;99.90;;;;;;5009313;28;20033;-77
2024/01/29 02:18:17;;;;;;;12.93;7.77;;;0.60;99.90;;;;;;5008890;28;20053;-78
2024/01/29 02:20:43;;;;;;;12.63;7.03;;;0.60;99.90;;;;;;4992846;28;20038;-77
2024/01/29 02:23:08;;;;;;;17.80;7.17;;;0.50;99.90;;;;;;4992619;28;20050;-78
2024/01/29 02:25:34;;;;;;;15.97;7.73;;;0.60;99.90;;;;;;5009436;28;20031;-77
2024/01/29 02:28:00;;;;;;;12.17;6.67;;;0.50;99.90;;;;;;4992547;28;20034;-80
2024/01/29 02:30:25;;;;;;;14.83;7.33;;;0.50;99.90;;;;;;4994135;28;20539;-78
2024/01/29 02:32:51;;;;;;;13.80;7.03;;;0.60;99.90;;;;;;4992656;28;20026;-77
2024/01/29 02:35:16;;;;;;;13.40;7.10;;;0.60;99.90;;;;;;5008451;28;20478;-78
2024/01/29 02:37:42;;;;;;;14.80;7.03;;;0.50;99.90;;;;;;5009061;28;20030;-77
2024/01/29 02:40:08;;;;;;;12.83;6.90;;;0.60;99.90;;;;;;5012030;28;20070;-78
2024/01/29 02:42:33;;;;;;;12.63;6.87;;;0.60;99.90;;;;;;4998159;28;20478;-78
2024/01/29 02:44:59;;;;;;;11.73;6.97;;;0.60;99.90;;;;;;4997945;28;20031;-77
2024/01/29 02:47:25;;;;;;;13.13;7.17;;;0.50;99.90;;;;;;4996201;28;20037;-77
2024/01/29 02:49:50;;;;;;;14.13;6.93;;;0.40;99.90;;;;;;5012758;28;20035;-78
2024/01/29 02:52:16;;;;;;;13.53;6.93;;;0.50;99.90;;;;;;4997301;28;20026;-77
2024/01/29 02:54:42;;;;;;;12.47;7.00;;;0.40;99.90;;;;;;4997703;28;20073;-77
2024/01/29 02:57:07;;;;;;;11.60;6.90;;;0.40;99.90;;;;;;4996383;28;20117;-78
2024/01/29 02:59:33;;;;;;;10.77;6.50;;;0.40;99.90;;;;;;4997553;28;20030;-77
2024/01/29 03:01:59;;;;;;;13.67;6.80;;;0.30;99.90;;;;;;4997512;28;20109;-77
2024/01/29 03:04:25;;;;;;;14.60;6.47;;;0.30;99.90;;;;;;4995664;28;20112;-77
2024/01/29 03:06:51;;;;;;;12.83;6.63;;;0.30;99.90;;;;;;4996236;28;20484;-77
2024/01/29 03:09:17;;;;;;;11.60;6.77;;;0.30;99.90;;;;;;4996914;28;20053;-77
2024/01/29 03:11:42;;;;;;;11.40;6.50;;;0.30;99.90;;;;;;5012485;28;20451;-77
2024/01/29 03:14:08;;;;;;;12.63;7.37;;;0.30;99.90;;;;;;4995333;28;20026;-77
2024/01/29 03:16:34;;;;;;;14.90;6.87;;;0.20;99.90;;;;;;4996867;28;20034;-77
2024/01/29 03:19:00;;;;;;;17.00;8.50;;;0.20;99.90;;;;;;4996991;28;20030;-77
2024/01/29 03:21:28;;;;;;;12.83;7.27;;;0.30;99.90;;;;;;5011851;28;20117;-77
2024/01/29 03:23:57;;;;;;;13.93;8.10;;;0.40;99.90;;;;;;4995803;28;20027;-76
2024/01/29 03:26:23;;;;;;;13.07;7.00;;;0.40;99.90;;;;;;4995403;28;20901;-77
2024/01/29 03:28:48;;;;;;;11.00;6.63;;;0.40;99.90;;;;;;4996857;28;20534;-77
2024/01/29 03:31:14;;;;;;;11.83;6.60;;;0.40;99.90;;;;;;4996407;28;20034;-78
2024/01/29 03:33:40;;;;;;;13.00;7.30;;;0.50;99.90;;;;;;5012051;28;20097;-78
2024/01/29 03:36:07;;;;;;;15.97;6.80;;;0.40;99.90;;;;;;4995288;28;20097;-78
2024/01/29 03:38:32;;;;;;;12.33;7.13;;;0.40;99.90;;;;;;4995996;28;20037;-78
2024/01/29 03:40:59;;;;;;;10.47;6.57;;;0.40;99.90;;;;;;4995487;28;20034;-77
2024/01/29 03:43:25;;;;;;;11.70;6.47;;;0.40;99.90;;;;;;4996268;28;20556;-77
2024/01/29 03:45:52;;;;;;;11.80;6.30;;;0.40;99.90;;;;;;4995840;28;20034;-77
2024/01/29 03:48:18;;;;;;;11.50;6.43;;;0.40;99.90;;;;;;4996408;28;20110;-78
2024/01/29 03:50:44;;;;;;;13.43;6.73;;;0.50;99.90;;;;;;5011739;28;20492;-77
2024/01/29 03:53:09;;;;;;;12.10;6.33;;;0.40;99.90;;;;;;5011034;28;20035;-76
2024/01/29 03:55:35;;;;;;;12.33;6.13;;;0.40;99.90;;;;;;5011474;28;20026;-77
2024/01/29 03:58:01;;;;;;;10.47;5.63;;;0.40;99.90;;;;;;5011587;28;20026;-77
2024/01/29 04:00:26;;;;;;;11.77;6.73;;;0.40;99.90;;;;;;5011048;28;20041;-76
2024/01/29 04:02:52;;;;;;;12.70;6.30;;;0.50;99.90;;;;;;4995046;28;20030;-77
2024/01/29 04:05:18;;;;;;;13.73;7.00;;;0.50;99.90;;;;;;4994023;28;20499;-77
2024/01/29 04:07:47;;;;;;;9.37;5.93;;;0.50;99.90;;;;;;4996158;28;20029;-76
2024/01/29 04:10:13;;;;;;;12.10;6.30;;;0.50;99.90;;;;;;4994444;28;20061;-77
2024/01/29 04:12:39;;;;;;;12.93;6.20;;;0.40;99.90;;;;;;5011276;28;20057;-77
2024/01/29 04:15:05;;;;;;;12.23;5.87;;;0.40;99.90;;;;;;5011284;28;20066;-76
2024/01/29 04:17:30;;;;;;;13.03;6.37;;;0.40;99.90;;;;;;4993991;28;20026;-76
2024/01/29 04:19:56;;;;;;;16.30;6.87;;;0.40;99.90;;;;;;5011009;28;20045;-77
2024/01/29 04:22:22;;;;;;;11.90;6.20;;;0.30;99.90;;;;;;4994451;28;20090;-77
2024/01/29 04:24:47;;;;;;;9.20;6.37;;;0.20;99.90;;;;;;4995795;28;20176;-76
2024/01/29 04:27:13;;;;;;;12.40;5.97;;;0.20;99.90;;;;;;4994012;28;20027;-77
2024/01/29 04:29:38;;;;;;;12.93;6.80;;;0.20;99.90;;;;;;5011008;28;20030;-76
2024/01/29 04:32:04;;;;;;;11.40;6.20;;;0.00;99.90;;;;;;4995665;28;20031;-77
2024/01/29 04:34:30;;;;;;;10.33;5.83;;;0.10;99.90;;;;;;4993616;28;20034;-77
2024/01/29 04:36:56;;;;;;;9.80;6.07;;;0.10;99.90;;;;;;5010816;28;20493;-76
2024/01/29 04:39:21;;;;;;;10.73;6.13;;;0.10;99.90;;;;;;4994982;28;20030;-77
2024/01/29 04:41:47;;;;;;;12.70;6.27;;;0.10;99.90;;;;;;4995384;28;20088;-77
2024/01/29 04:44:14;;;;;;;8.50;5.33;;;0.10;99.90;;;;;;4995076;28;20425;-77
2024/01/29 04:46:40;;;;;;;11.43;6.00;;;0.10;99.90;;;;;;4994046;28;20027;-77
2024/01/29 04:49:06;;;;;;;10.30;5.73;;;0.10;99.90;;;;;;4995484;28;20033;-76
2024/01/29 04:51:32;;;;;;;11.33;5.93;;;0.10;99.90;;;;;;5009906;28;20496;-77
2024/01/29 04:53:57;;;;;;;12.60;6.50;;;0.10;99.90;;;;;;4994183;28;20026;-77
2024/01/29 04:56:23;;;;;;;13.50;5.63;;;0.10;99.90;;;;;;4993387;28;20031;-77
2024/01/29 04:58:48;;;;;;;13.03;6.57;;;0.10;99.90;;;;;;4995294;28;20026;-77
2024/01/29 05:01:14;;;;;;;12.77;6.07;;;0.00;99.90;;;;;;4994148;28;20035;-77
2024/01/29 05:03:40;;;;;;;14.37;5.90;;;0.10;99.90;;;;;;4995030;28;20093;-77
2024/01/29 05:06:06;;;;;;;9.30;5.53;;;0.10;99.90;;;;;;4995216;28;20108;-76
2024/01/29 05:08:31;;;;;;;10.60;5.80;;;0.00;99.90;;;;;;4993484;28;20030;-77
2024/01/29 05:10:57;;;;;;;10.50;5.43;;;0.00;99.90;;;;;;4995182;28;20105;-77
2024/01/29 05:13:22;;;;;;;9.53;5.20;;;0.00;99.90;;;;;;4994574;28;20035;-77
2024/01/29 05:15:48;;;;;;;10.40;4.93;;;0.00;99.90;;;;;;5010186;28;20125;-76
2024/01/29 05:18:14;;;;;;;11.17;5.63;;;0.10;99.90;;;;;;5009680;28;20026;-77
2024/01/29 05:20:39;;;;;;;8.87;5.30;;;0.00;99.90;;;;;;4993544;28;20065;-77
2024/01/29 05:23:05;;;;;;;11.50;5.63;;;0.10;99.90;;;;;;5009919;28;20066;-77
2024/01/29 05:25:32;;;;;;;11.77;5.10;;;0.10;99.90;;;;;;4993167;28;20030;-77
2024/01/29 05:27:57;;;;;;;12.87;5.83;;;0.20;99.90;;;;;;4993632;28;20463;-77
2024/01/29 05:30:24;;;;;;;8.77;5.00;;;0.20;99.90;;;;;;5009175;28;20121;-77
2024/01/29 05:32:49;;;;;;;9.63;5.13;;;0.30;99.90;;;;;;4993328;28;20144;-77
2024/01/29 05:35:15;;;;;;;8.83;4.90;;;0.30;99.90;;;;;;5009357;28;20073;-78
2024/01/29 05:37:41;;;;;;;9.03;5.17;;;0.30;99.90;;;;;;5009880;28;20029;-77
2024/01/29 05:40:09;;;;;;;8.20;5.20;;;0.30;99.90;;;;;;4993420;28;20501;-77
2024/01/29 05:42:35;;;;;;;12.60;5.57;;;0.30;99.90;;;;;;4992892;28;20030;-77
2024/01/29 05:45:00;;;;;;;10.93;5.53;;;0.20;99.90;;;;;;4994555;28;20042;-77
2024/01/29 05:47:26;;;;;;;12.70;6.50;;;0.10;99.90;;;;;;4993855;28;20041;-77
2024/01/29 05:49:51;;;;;;;10.60;5.97;;;0.00;99.90;;;;;;4994511;28;20041;-77
2024/01/29 05:52:17;;;;;;;11.83;5.50;;;0.00;99.90;;;;;;5008991;28;20462;-77
2024/01/29 05:54:42;;;;;;;10.00;5.43;;;0.00;99.90;;;;;;5009329;28;20064;-77
2024/01/29 05:57:11;;;;;;;10.57;5.67;;;0.10;99.90;;;;;;4994064;28;20030;-78
2024/01/29 05:59:41;;;;;;;10.40;4.93;;;0.10;99.90;;;;;;4993035;28;20035;-77
2024/01/29 06:02:07;;;;;;;9.97;5.80;;;0.00;99.90;;;;;;4993162;28;20057;-77
2024/01/29 06:04:33;;;;;;;10.47;5.87;;;0.00;99.90;;;;;;4993268;28;20077;-77
2024/01/29 06:06:59;;;;;;;7.87;5.20;;;0.10;99.90;;;;;;4993107;28;20053;-77
2024/01/29 06:09:24;;;;;;;13.00;5.73;;;0.10;99.90;;;;;;4992504;28;20440;-77
2024/01/29 06:11:50;;;;;;;11.93;5.57;;;0.10;99.90;;;;;;5009559;28;20026;-77
2024/01/29 06:14:16;;;;;;;8.90;5.33;;;0.00;99.90;;;;;;5007998;28;20023;-78
2024/01/29 06:16:43;;;;;;;11.43;6.30;;;0.00;99.90;;;;;;4994060;28;20030;-77
2024/01/29 06:19:14;;;;;;;9.23;5.43;;;0.00;99.90;;;;;;5009236;28;20030;-77
2024/01/29 06:21:40;;;;;;;11.83;5.43;;;0.00;99.90;;;;;;4993057;28;20045;-77
2024/01/29 06:24:05;;;;;;;12.83;5.77;;;0.00;99.90;;;;;;4993972;28;20399;-77
2024/01/29 06:26:31;;;;;;;12.97;6.27;;;0.10;99.90;;;;;;4993665;28;20370;-77
2024/01/29 06:28:58;;;;;;;11.97;5.93;;;0.00;99.90;;;;;;5009394;28;20027;-77
2024/01/29 06:31:24;;;;;;;13.17;6.73;;;0.00;99.90;;;;;;5008339;28;20031;-77
2024/01/29 06:33:53;;;;;;;15.13;6.83;;;0.10;99.90;;;;;;4993429;28;20126;-77
2024/01/29 06:36:19;;;;;;;11.07;6.00;;;0.20;99.90;;;;;;4992483;28;20026;-78
2024/01/29 06:38:44;;;;;;;14.90;6.50;;;0.10;99.90;;;;;;4992788;28;20608;-77
2024/01/29 06:41:23;;;;;;;9.23;5.63;;;0.00;99.90;;;;;;4992349;28;20084;-77
2024/01/29 06:43:50;;;;;;;10.70;5.40;;;0.00;99.90;;;;;;4991850;28;20034;-77
2024/01/29 06:46:16;;;;;;;11.30;6.23;;;0.00;99.90;;;;;;4992619;28;20057;-77
2024/01/29 06:48:42;;;;;;;12.47;6.60;;;0.00;99.90;;;;;;4993141;28;20038;-77
2024/01/29 06:51:08;;;;;;;12.53;6.50;;;0.00;99.90;;;;;;4993454;28;20375;-77
2024/01/29 06:53:35;;;;;;;13.60;6.37;;;0.00;99.90;;;;;;4991667;28;20403;-77
2024/01/29 06:56:03;;;;;;;10.00;5.60;;;-0.10;99.90;;;;;;4993604;28;20022;-77
2024/01/29 06:58:29;;;;;;;9.73;5.83;;;-0.10;99.90;;;;;;4992163;28;20034;-77
2024/01/29 07:00:55;;;;;;;12.70;6.47;;;-0.10;99.90;;;;;;4992028;28;20034;-77
2024/01/29 07:03:21;;;;;;;17.13;6.67;;;0.00;99.90;;;;;;4991537;28;20030;-77
2024/01/29 07:05:50;;;;;;;12.87;6.03;;;0.00;99.90;;;;;;5009479;28;20510;-77
2024/01/29 07:08:16;;;;;;;11.43;5.97;;;0.00;99.90;;;;;;4995478;28;20041;-81
2024/01/29 07:10:42;;;;;;;11.90;5.87;;;0.00;99.90;;;;;;5008028;28;20395;-77
2024/01/29 07:13:08;;;;;;;10.67;5.50;;;0.10;99.90;;;;;;4993214;28;20030;-77
2024/01/29 07:15:34;;;;;;;12.40;5.87;;;0.10;99.90;;;;;;4992793;28;20104;-77
2024/01/29 07:17:59;;;;;;;12.83;6.00;;;0.10;99.90;;;;;;5008459;28;20031;-76
2024/01/29 07:20:27;;;;;;;8.57;4.80;;;0.00;99.90;;;;;;5010528;28;20066;-78
2024/01/29 07:22:53;;;;;;;12.03;5.60;;;0.10;99.90;;;;;;5000498;28;20478;-77
2024/01/29 07:25:19;;;;;;;10.17;5.50;;;0.10;99.90;;;;;;5010027;28;20026;-79
2024/01/29 07:27:44;;;;;;;13.67;5.40;;;0.00;99.90;;;;;;5000303;28;20525;-77
2024/01/29 07:30:11;;;;;;;10.20;5.53;;;0.10;99.90;;;;;;5009146;28;20434;-78
2024/01/29 07:32:36;;;;;;;11.60;5.43;;;0.00;99.90;;;;;;5014736;28;20091;-76
2024/01/29 07:35:03;;;;;;;8.00;5.10;;;0.00;99.90;;;;;;4998878;28;20125;-77
2024/01/29 07:37:29;;;;;;;10.23;5.60;;;-0.10;99.90;;;;;;4990586;28;20030;-77
2024/01/29 07:39:55;;;;;;;11.43;5.40;;;0.00;99.90;;;;;;5004525;28;20046;-78
2024/01/29 07:42:21;;;;;;;11.00;5.43;;;0.10;99.90;;;;;;4986973;28;20022;-78
2024/01/29 07:44:48;;;;;;;9.57;4.90;;;0.10;99.90;;;;;;4962510;28;20109;-77
2024/01/29 07:47:14;;;;;;;14.60;5.20;;;0.20;99.90;;;;;;4970937;28;20106;-77
2024/01/29 07:49:39;;;;;;;7.53;4.90;;;0.20;99.90;;;;;;4973333;28;20469;-77
2024/01/29 07:52:05;;;;;;;12.13;5.97;;;0.30;99.90;;;;;;4971128;28;20034;-78
2024/01/29 07:54:31;;;;;;;9.37;4.97;;;0.30;99.90;;;;;;4967049;28;20030;-77
2024/01/29 07:56:57;;;;;;;10.87;5.67;;;0.40;99.90;;;;;;4989689;28;20136;-77
2024/01/29 07:59:23;;;;;;;9.63;5.10;;;0.40;99.90;;;;;;4966850;28;20027;-77
2024/01/29 08:01:49;;;;;;;8.93;5.00;;;0.40;99.90;;;;;;4984710;28;20037;-77
2024/01/29 08:04:14;;;;;;;10.40;5.83;;;0.50;99.90;;;;;;4967563;28;20072;-77
2024/01/29 08:06:40;;;;;;;13.60;5.77;;;0.50;99.90;;;;;;4977718;28;20080;-77
2024/01/29 08:09:06;;;;;;;12.10;6.30;;;0.50;99.90;;;;;;4988467;28;20076;-77
2024/01/29 08:11:32;;;;;;;10.77;6.17;;;0.50;99.90;;;;;;4992407;28;20093;-78
2024/01/29 08:13:58;;;;;;;12.30;6.37;;;0.60;99.90;;;;;;4974942;28;20113;-78
2024/01/29 08:16:24;;;;;;;9.50;5.83;;;0.60;99.90;;;;;;4979307;28;20122;-78
2024/01/29 08:18:50;;;;;;;10.43;6.03;;;0.60;99.90;;;;;;4994791;28;20022;-77
2024/01/29 08:21:16;;;;;;;10.63;5.73;;;0.60;99.90;;;;;;4987851;28;20041;-77
2024/01/29 08:23:42;;;;;;;13.30;5.60;;;0.70;99.90;;;;;;4957656;28;20027;-78
2024/01/29 08:26:08;;;;;;;11.97;5.37;;;0.70;99.90;;;;;;4974034;28;20057;-77
2024/01/29 08:28:34;;;;;;;18.40;6.17;;;0.80;99.90;;;;;;4986360;28;20030;-78
2024/01/29 08:31:00;;;;;;;8.80;4.87;;;0.90;99.90;;;;;;4980004;28;20036;-80
2024/01/29 08:33:27;;;;;;;12.57;5.20;;;0.90;99.90;;;;;;4993786;28;20074;-79
2024/01/29 08:35:53;;;;;;;11.07;5.37;;;1.00;99.90;;;;;;4989535;28;20158;-78
2024/01/29 08:38:18;;;;;;;20.40;5.33;;;1.10;99.90;;;;;;4995801;28;20467;-78
2024/01/29 08:40:44;;;;;;;10.30;5.33;;;1.10;99.90;;;;;;4987674;28;20080;-77
2024/01/29 08:43:10;;;;;;;12.67;5.97;;;1.10;99.90;;;;;;4995123;28;20048;-78
2024/01/29 08:45:35;;;;;;;9.23;5.33;;;1.20;99.90;;;;;;4986357;28;20486;-77
2024/01/29 08:48:03;;;;;;;8.43;5.23;;;1.30;99.90;;;;;;4989560;28;20028;-80
2024/01/29 08:50:30;;;;;;;12.20;6.30;;;1.30;99.90;;;;;;4993900;28;20478;-80
2024/01/29 08:52:56;;;;;;;11.00;6.23;;;1.40;99.90;;;;;;4994813;28;20026;-79
2024/01/29 08:55:22;;;;;;;11.87;5.60;;;1.40;99.90;;;;;;4994647;28;20049;-81
2024/01/29 08:57:48;;;;;;;7.33;5.07;;;1.50;99.90;;;;;;4994795;28;20027;-80
2024/01/29 09:00:15;;;;;;;8.97;5.33;;;1.50;99.90;;;;;;4997923;28;20565;-80
2024/01/29 09:02:41;;;;;;;8.67;4.47;;;1.60;99.90;;;;;;4986433;28;20030;-80
2024/01/29 09:05:08;;;;;;;10.17;4.40;;;1.70;99.90;;;;;;4993312;28;20539;-79
2024/01/29 09:07:34;;;;;;;6.93;4.07;;;1.80;99.90;;;;;;4985040;28;20023;-78
2024/01/29 09:09:59;;;;;;;8.43;4.07;;;1.80;99.90;;;;;;4987874;28;20495;-80
2024/01/29 09:12:25;;;;;;;8.27;4.27;;;1.90;99.90;;;;;;4985049;28;20054;-79
2024/01/29 09:14:50;;;;;;;8.13;4.57;;;2.00;99.90;;;;;;4994669;28;20027;-79
2024/01/29 09:17:16;;;;;;;9.17;4.63;;;2.00;99.90;;;;;;4994222;28;20065;-78
2024/01/29 09:19:45;;;;;;;7.27;3.80;;;2.00;99.90;;;;;;4986013;28;20053;-79
2024/01/29 09:22:11;;;;;;;11.27;4.33;;;2.00;99.90;;;;;;4992969;28;20114;-79
2024/01/29 09:24:36;;;;;;;9.63;4.53;;;2.10;99.90;;;;;;4985251;28;20038;-77
2024/01/29 09:27:02;;;;;;;7.23;4.47;;;2.10;99.90;;;;;;4973635;28;20122;-79
2024/01/29 09:29:28;;;;;;;8.47;4.83;;;2.20;99.90;;;;;;4974322;28;20085;-78
2024/01/29 09:31:53;;;;;;;7.90;4.33;;;2.30;99.90;;;;;;4984703;28;20450;-78
2024/01/29 09:34:20;;;;;;;8.70;4.60;;;2.30;99.90;;;;;;4989757;28;20395;-78
2024/01/29 09:36:46;;;;;;;6.53;4.07;;;2.30;99.90;;;;;;4974515;28;20065;-80
2024/01/29 09:39:12;;;;;;;8.17;4.27;;;2.40;99.90;;;;;;4987319;28;20054;-80
2024/01/29 09:41:38;;;;;;;9.27;4.20;;;2.50;99.90;;;;;;4956784;28;20152;-79
2024/01/29 09:44:06;;;;;;;10.67;4.87;;;2.60;99.90;;;;;;4985729;28;20459;-83
2024/01/29 09:46:36;;;;;;;9.93;5.37;;;2.60;99.90;;;;;;4978925;28;20038;-79
2024/01/29 09:49:02;;;;;;;11.97;4.80;;;2.60;99.90;;;;;;4988518;28;20038;-78
2024/01/29 09:51:29;;;;;;;8.33;4.77;;;2.60;99.90;;;;;;4991821;28;20034;-77
2024/01/29 09:53:55;;;;;;;12.33;5.80;;;2.70;99.90;;;;;;4985311;28;20026;-78
2024/01/29 09:56:20;;;;;;;9.80;4.90;;;2.70;99.90;;;;;;5008109;28;20022;-85
2024/01/29 09:58:46;;;;;;;13.07;5.63;;;2.80;99.90;;;;;;4985972;28;20513;-76
2024/01/29 10:01:15;;;;;;;12.00;5.53;;;2.80;99.90;;;;;;4993695;28;20034;-84
2024/01/29 10:03:41;;;;;;;10.77;5.73;;;2.90;99.90;;;;;;4985489;28;20034;-82
2024/01/29 10:06:07;;;;;;;9.47;5.10;;;2.90;99.90;;;;;;4992346;28;20505;-81
2024/01/29 10:08:34;;;;;;;11.93;5.97;;;2.90;99.90;;;;;;4967732;28;20109;-80
2024/01/29 10:11:00;;;;;;;11.27;5.57;;;2.90;99.90;;;;;;4992391;28;20467;-81
2024/01/29 10:13:25;;;;;;;14.67;6.10;;;2.90;99.90;;;;;;4993010;28;20383;-82
2024/01/29 10:15:54;;;;;;;12.40;5.93;;;2.90;99.90;;;;;;4992675;28;20026;-82
2024/01/29 10:18:20;;;;;;;15.00;6.43;;;3.10;99.90;;;;;;4980673;28;20072;-81
2024/01/29 10:20:45;;;;;;;15.67;7.40;;;3.10;99.90;;;;;;4983899;28;20034;-80
2024/01/29 10:23:11;;;;;;;11.73;6.60;;;3.10;99.90;;;;;;4993687;28;20050;-83
2024/01/29 10:25:38;;;;;;;16.00;7.67;;;3.20;99.90;;;;;;4984935;28;20032;-82
2024/01/29 10:28:11;;;;;;;16.07;8.00;;;3.20;99.90;;;;;;4993540;28;20019;-83
2024/01/29 10:30:40;;;;;;;14.90;7.73;;;3.30;99.90;;;;;;4976230;28;20070;-84
2024/01/29 10:33:07;;;;;;;15.77;7.03;;;3.50;99.90;;;;;;5003180;28;20054;-82
2024/01/29 10:35:33;;;;;;;16.77;7.60;;;3.60;99.90;;;;;;4984305;28;20041;-82
2024/01/29 10:38:04;;;;;;;15.60;7.73;;;3.70;99.90;;;;;;4993009;28;20023;-82
2024/01/29 10:40:30;;;;;;;15.00;7.55;;;3.80;99.90;;;;;;4992371;28;20065;-83
2024/01/29 10:42:59;;;;;;;15.23;7.87;;;3.90;99.90;;;;;;4987959;28;20480;-82
2024/01/29 10:45:25;;;;;;;15.07;7.40;;;3.90;99.90;;;;;;4992152;28;20514;-83
2024/01/29 10:47:57;;;;;;;11.33;6.70;;;4.00;99.90;;;;;;4993344;28;20030;-78
2024/01/29 10:50:23;;;;;;;;;;;3.90;99.90;;;;;;4990238;28;20058;-87
2024/01/29 10:52:50;;;;;;;12.43;6.90;;;4.00;99.90;;;;;;4980584;28;19953;-80
2024/01/29 10:55:17;;;;;;;13.83;8.17;;;4.10;99.90;;;;;;4971421;28;20370;-79
2024/01/29 10:57:49;;;;;;;13.47;7.47;;;4.20;99.90;;;;;;4982554;28;20246;-80
2024/01/29 11:00:16;;;;;;;17.13;8.37;;;4.30;99.90;;;;;;4974806;28;20035;-79
2024/01/29 11:02:44;;;;;;;16.67;8.17;;;4.40;99.90;;;;;;4981588;28;20153;-81
2024/01/29 11:05:11;;;;;;;12.60;7.00;;;4.50;99.90;;;;;;4992685;28;20061;-79
2024/01/29 11:07:39;;;;;;;13.33;7.40;;;4.60;99.90;;;;;;4987915;28;20531;-80
2024/01/29 11:10:16;;;;;;;13.07;7.10;;;4.70;99.90;;;;;;4995694;28;20026;-81
2024/01/29 11:12:42;;;;;;;11.50;6.23;;;4.80;99.90;;;;;;4995904;28;20034;-80
2024/01/29 11:15:10;;;;;;;13.90;6.90;;;4.90;99.90;;;;;;4997079;28;20062;-81
2024/01/29 11:17:35;;;;;;;10.67;6.47;;;4.90;99.90;;;;;;4988029;28;20061;-81
2024/01/29 11:20:04;;;;;;;10.57;6.30;;;4.90;99.90;;;;;;4995982;28;20066;-81
2024/01/29 11:22:40;;;;;;;12.60;6.50;;;4.90;99.90;;;;;;4982596;28;20031;-82
2024/01/29 11:25:15;;;;;;;13.57;6.80;;;4.90;99.90;;;;;;4990341;28;20034;-85
2024/01/29 11:27:48;;;;;;;12.43;6.27;;;4.90;99.90;;;;;;4988742;28;20121;-86
2024/01/29 11:30:23;;;;;;;13.23;6.93;;;4.90;99.90;;;;;;4995589;28;20026;-84
2024/01/29 11:32:50;;;;;;;14.80;6.63;;;4.90;99.90;;;;;;4990103;28;20031;-83
2024/01/29 11:35:23;;;;;;;10.17;6.10;;;5.00;99.90;;;;;;4995677;28;20364;-83
2024/01/29 11:37:49;;;;;;;10.33;6.17;;;5.20;99.90;;;;;;4990612;28;20132;-86
2024/01/29 11:40:43;;;;;;;16.97;6.83;;;5.30;99.90;;;;;;4989477;28;20065;-84
2024/01/29 11:43:11;;;;;;;12.23;6.70;;;5.30;99.90;;;;;;4973947;28;20475;-84
2024/01/29 11:45:37;;;;;;;12.10;6.27;;;5.40;99.90;;;;;;4985559;28;20088;-85
2024/01/29 11:48:09;;;;;;;10.50;6.23;;;5.50;99.90;;;;;;4996352;28;20026;-84
2024/01/29 11:50:36;;;;;;;;;;;5.60;99.90;;;;;;4987759;28;20038;-84
2024/01/29 11:53:02;;;;;;;12.17;6.50;;;5.60;99.90;;;;;;4995334;28;19905;-84
2024/01/29 11:55:27;;;;;;;14.00;6.33;;;5.60;99.90;;;;;;4995891;28;20026;-84
2024/01/29 11:57:53;;;;;;;12.57;6.47;;;5.60;99.90;;;;;;4996769;28;20375;-84
2024/01/29 12:00:19;;;;;;;12.47;6.97;;;5.70;99.90;;;;;;4990513;28;20052;-85
2024/01/29 12:02:50;;;;;;;12.57;6.53;;;5.80;99.90;;;;;;4986725;28;20030;-88
2024/01/29 12:05:16;;;;;;;13.47;7.60;;;5.90;99.90;;;;;;4976710;28;20544;-84
2024/01/29 12:07:47;;;;;;;12.97;6.80;;;6.00;99.90;;;;;;4971246;28;20037;-82
2024/01/29 12:10:12;;;;;;;14.27;7.07;;;6.00;99.90;;;;;;4959436;28;20078;-81
2024/01/29 12:12:38;;;;;;;12.97;6.50;;;6.20;99.90;;;;;;4957575;28;20054;-82
2024/01/29 12:15:06;;;;;;;12.40;6.87;;;6.30;99.90;;;;;;4959491;28;20027;-83
2024/01/29 12:17:32;;;;;;;12.40;6.23;;;6.40;99.90;;;;;;4958745;28;20356;-83
2024/01/29 12:19:59;;;;;;;11.57;6.17;;;6.60;99.90;;;;;;4957382;28;20476;-85
2024/01/29 12:22:24;;;;;;;12.67;6.47;;;6.90;99.90;;;;;;4957841;28;20035;-81
2024/01/29 12:24:50;;;;;;;13.40;6.73;;;7.10;99.90;;;;;;4958865;28;20045;-80
2024/01/29 12:27:17;;;;;;;15.20;6.43;;;7.30;99.90;;;;;;4976370;28;20100;-83
2024/01/29 12:29:45;;;;;;;13.82;5.75;;;7.40;99.90;;;;;;4975647;28;20030;-78
2024/01/29 12:32:11;;;;;;;12.15;6.50;;;7.70;99.90;;;;;;4958806;28;20479;-78
2024/01/29 12:34:47;;;;;;;14.13;6.55;;;7.80;99.90;;;;;;4975559;28;20054;-83
2024/01/29 12:37:25;;;;;;;9.18;5.30;;;8.00;99.90;;;;;;4958939;28;20134;-84
2024/01/29 12:39:55;;;;;;;12.95;6.25;;;8.20;99.90;;;;;;4975348;28;20022;-81
2024/01/29 12:42:22;;;;;;;10.45;5.68;;;8.30;99.90;;;;;;4958992;28;20044;-85
2024/01/29 12:44:50;;;;;;;13.93;5.03;;;8.50;99.90;;;;;;4958638;28;20023;-86